sensor_id;sensor_type;location;lat;lon;timestamp;P1;P2;P0
61760;PMS5003;47664;51.660;-0.100;2023-02-28T00:00:28;6;6;
61760;PMS5003;47664;51.660;-0.100;2023-02-28T00:03:02;5;5;
61760;PMS5003;47664;51.660;-0.100;2023-02-28T00:05:34;9;6;
61760;PMS5003;47664;51.660;-0.100;2023-02-28T00:08:07;9;7;
61760;PMS5003;47664;51.660;-0.100;2023-02-28T00:10:39;13;10;
61760;PMS5003;47664;51.660;-0.100;2023-02-28T00:13:11;10;10;
61760;PMS5003;47664;51.660;-0.100;2023-02-28T00:15:44;6;4;
61760;PMS5003;47664;51.660;-0.100;2023-02-28T00:18:25;6;6;
61760;PMS5003;47664;51.660;-0.100;2023-02-28T00:20:56;6;6;
61760;PMS5003;47664;51.660;-0.100;2023-02-28T00:23:29;8;6;
61760;PMS5003;47664;51.660;-0.100;2023-02-28T00:26:02;8;8;
61760;PMS5003;47664;51.660;-0.100;2023-02-28T00:28:34;6;5;
61760;PMS5003;47664;51.660;-0.100;2023-02-28T00:31:06;9;5;
61760;PMS5003;47664;51.660;-0.100;2023-02-28T00:33:38;6;6;
61760;PMS5003;47664;51.660;-0.100;2023-02-28T00:36:11;13;11;
61760;PMS5003;47664;51.660;-0.100;2023-02-28T00:38:43;6;6;
61760;PMS5003;47664;51.660;-0.100;2023-02-28T00:41:15;7;6;
61760;PMS5003;47664;51.660;-0.100;2023-02-28T00:43:48;8;6;
61760;PMS5003;47664;51.660;-0.100;2023-02-28T00:46:20;6;5;
61760;PMS5003;47664;51.660;-0.100;2023-02-28T00:48:52;9;7;
61760;PMS5003;47664;51.660;-0.100;2023-02-28T00:51:24;14;7;
61760;PMS5003;47664;51.660;-0.100;2023-02-28T00:53:57;7;7;
61760;PMS5003;47664;51.660;-0.100;2023-02-28T00:56:29;10;7;
61760;PMS5003;47664;51.660;-0.100;2023-02-28T00:59:00;9;6;
61760;PMS5003;47664;51.660;-0.100;2023-02-28T01:01:33;11;6;
61760;PMS5003;47664;51.660;-0.100;2023-02-28T01:04:05;8;6;
61760;PMS5003;47664;51.660;-0.100;2023-02-28T01:06:38;10;9;
61760;PMS5003;47664;51.660;-0.100;2023-02-28T01:09:10;11;8;
61760;PMS5003;47664;51.660;-0.100;2023-02-28T01:11:43;16;15;
61760;PMS5003;47664;51.660;-0.100;2023-02-28T01:14:15;14;10;
61760;PMS5003;47664;51.660;-0.100;2023-02-28T01:16:48;12;11;
61760;PMS5003;47664;51.660;-0.100;2023-02-28T01:19:20;10;7;
61760;PMS5003;47664;51.660;-0.100;2023-02-28T01:21:52;12;7;
61760;PMS5003;47664;51.660;-0.100;2023-02-28T01:24:27;11;7;
61760;PMS5003;47664;51.660;-0.100;2023-02-28T01:26:59;5;5;
61760;PMS5003;47664;51.660;-0.100;2023-02-28T01:29:31;8;6;
61760;PMS5003;47664;51.660;-0.100;2023-02-28T01:32:03;9;6;
61760;PMS5003;47664;51.660;-0.100;2023-02-28T01:34:36;9;6;
61760;PMS5003;47664;51.660;-0.100;2023-02-28T01:37:08;13;7;
61760;PMS5003;47664;51.660;-0.100;2023-02-28T01:39:40;11;6;
61760;PMS5003;47664;51.660;-0.100;2023-02-28T01:42:13;9;9;
61760;PMS5003;47664;51.660;-0.100;2023-02-28T01:44:57;13;7;
61760;PMS5003;47664;51.660;-0.100;2023-02-28T01:47:28;13;10;
61760;PMS5003;47664;51.660;-0.100;2023-02-28T01:49:58;6;6;
61760;PMS5003;47664;51.660;-0.100;2023-02-28T01:52:33;9;6;
61760;PMS5003;47664;51.660;-0.100;2023-02-28T01:55:07;10;7;
61760;PMS5003;47664;51.660;-0.100;2023-02-28T01:57:42;6;6;
61760;PMS5003;47664;51.660;-0.100;2023-02-28T02:00:19;10;7;
61760;PMS5003;47664;51.660;-0.100;2023-02-28T02:02:53;8;6;
61760;PMS5003;47664;51.660;-0.100;2023-02-28T02:05:28;11;8;
61760;PMS5003;47664;51.660;-0.100;2023-02-28T02:08:03;10;7;
61760;PMS5003;47664;51.660;-0.100;2023-02-28T02:10:39;8;7;
61760;PMS5003;47664;51.660;-0.100;2023-02-28T02:13:25;10;5;
61760;PMS5003;47664;51.660;-0.100;2023-02-28T02:16:04;7;6;
61760;PMS5003;47664;51.660;-0.100;2023-02-28T02:18:43;12;6;
61760;PMS5003;47664;51.660;-0.100;2023-02-28T02:25:42;7;7;
61760;PMS5003;47664;51.660;-0.100;2023-02-28T02:28:20;5;5;
61760;PMS5003;47664;51.660;-0.100;2023-02-28T02:32:19;9;7;
61760;PMS5003;47664;51.660;-0.100;2023-02-28T02:34:58;10;9;
61760;PMS5003;47664;51.660;-0.100;2023-02-28T02:37:38;7;7;
61760;PMS5003;47664;51.660;-0.100;2023-02-28T02:40:12;11;8;
61760;PMS5003;47664;51.660;-0.100;2023-02-28T02:42:45;15;11;
61760;PMS5003;47664;51.660;-0.100;2023-02-28T02:45:18;18;13;
61760;PMS5003;47664;51.660;-0.100;2023-02-28T02:47:51;8;8;
61760;PMS5003;47664;51.660;-0.100;2023-02-28T02:50:25;15;10;
61760;PMS5003;47664;51.660;-0.100;2023-02-28T02:53:01;12;9;
61760;PMS5003;47664;51.660;-0.100;2023-02-28T02:55:38;10;10;
61760;PMS5003;47664;51.660;-0.100;2023-02-28T02:58:10;13;8;
61760;PMS5003;47664;51.660;-0.100;2023-02-28T03:00:42;12;12;
61760;PMS5003;47664;51.660;-0.100;2023-02-28T03:03:18;13;10;
61760;PMS5003;47664;51.660;-0.100;2023-02-28T03:05:51;12;9;
61760;PMS5003;47664;51.660;-0.100;2023-02-28T03:08:24;11;11;
61760;PMS5003;47664;51.660;-0.100;2023-02-28T03:11:01;10;9;
61760;PMS5003;47664;51.660;-0.100;2023-02-28T03:13:44;12;9;
61760;PMS5003;47664;51.660;-0.100;2023-02-28T03:17:26;15;12;
61760;PMS5003;47664;51.660;-0.100;2023-02-28T03:20:07;15;12;
61760;PMS5003;47664;51.660;-0.100;2023-02-28T03:22:45;14;12;
61760;PMS5003;47664;51.660;-0.100;2023-02-28T03:25:21;15;11;
61760;PMS5003;47664;51.660;-0.100;2023-02-28T03:27:59;17;14;
61760;PMS5003;47664;51.660;-0.100;2023-02-28T03:30:33;14;12;
61760;PMS5003;47664;51.660;-0.100;2023-02-28T03:33:08;14;11;
61760;PMS5003;47664;51.660;-0.100;2023-02-28T03:35:40;21;14;
61760;PMS5003;47664;51.660;-0.100;2023-02-28T03:38:11;11;11;
61760;PMS5003;47664;51.660;-0.100;2023-02-28T03:40:48;17;13;
61760;PMS5003;47664;51.660;-0.100;2023-02-28T03:43:25;16;12;
61760;PMS5003;47664;51.660;-0.100;2023-02-28T03:46:02;14;12;
61760;PMS5003;47664;51.660;-0.100;2023-02-28T03:48:35;16;15;
61760;PMS5003;47664;51.660;-0.100;2023-02-28T03:51:06;13;13;
61760;PMS5003;47664;51.660;-0.100;2023-02-28T03:53:42;21;14;
61760;PMS5003;47664;51.660;-0.100;2023-02-28T03:56:20;18;14;
61760;PMS5003;47664;51.660;-0.100;2023-02-28T03:58:58;16;14;
61760;PMS5003;47664;51.660;-0.100;2023-02-28T04:01:38;16;13;
61760;PMS5003;47664;51.660;-0.100;2023-02-28T04:04:13;14;14;
61760;PMS5003;47664;51.660;-0.100;2023-02-28T04:06:46;18;14;
61760;PMS5003;47664;51.660;-0.100;2023-02-28T04:09:17;15;15;
61760;PMS5003;47664;51.660;-0.100;2023-02-28T04:11:50;15;13;
61760;PMS5003;47664;51.660;-0.100;2023-02-28T04:14:23;23;21;
61760;PMS5003;47664;51.660;-0.100;2023-02-28T04:16:55;22;15;
61760;PMS5003;47664;51.660;-0.100;2023-02-28T04:19:27;21;14;
61760;PMS5003;47664;51.660;-0.100;2023-02-28T04:21:59;20;16;
61760;PMS5003;47664;51.660;-0.100;2023-02-28T04:24:31;14;14;
61760;PMS5003;47664;51.660;-0.100;2023-02-28T04:27:03;16;13;
61760;PMS5003;47664;51.660;-0.100;2023-02-28T04:29:40;14;13;
61760;PMS5003;47664;51.660;-0.100;2023-02-28T04:32:07;15;14;
61760;PMS5003;47664;51.660;-0.100;2023-02-28T04:34:39;15;13;
61760;PMS5003;47664;51.660;-0.100;2023-02-28T04:37:12;21;18;
61760;PMS5003;47664;51.660;-0.100;2023-02-28T04:39:45;15;14;
61760;PMS5003;47664;51.660;-0.100;2023-02-28T04:42:18;19;19;
61760;PMS5003;47664;51.660;-0.100;2023-02-28T04:44:50;21;18;
61760;PMS5003;47664;51.660;-0.100;2023-02-28T04:47:22;19;16;
61760;PMS5003;47664;51.660;-0.100;2023-02-28T04:49:55;18;13;
61760;PMS5003;47664;51.660;-0.100;2023-02-28T04:52:28;18;15;
61760;PMS5003;47664;51.660;-0.100;2023-02-28T04:55:00;14;13;
61760;PMS5003;47664;51.660;-0.100;2023-02-28T04:57:33;18;12;
61760;PMS5003;47664;51.660;-0.100;2023-02-28T05:00:06;20;13;
61760;PMS5003;47664;51.660;-0.100;2023-02-28T05:02:39;16;14;
61760;PMS5003;47664;51.660;-0.100;2023-02-28T05:05:11;13;12;
61760;PMS5003;47664;51.660;-0.100;2023-02-28T05:07:43;18;14;
61760;PMS5003;47664;51.660;-0.100;2023-02-28T05:10:16;19;17;
61760;PMS5003;47664;51.660;-0.100;2023-02-28T05:12:49;21;17;
61760;PMS5003;47664;51.660;-0.100;2023-02-28T05:15:21;19;15;
61760;PMS5003;47664;51.660;-0.100;2023-02-28T05:17:54;18;15;
61760;PMS5003;47664;51.660;-0.100;2023-02-28T05:20:26;15;13;
61760;PMS5003;47664;51.660;-0.100;2023-02-28T05:22:58;17;15;
61760;PMS5003;47664;51.660;-0.100;2023-02-28T05:25:31;18;13;
61760;PMS5003;47664;51.660;-0.100;2023-02-28T05:28:03;15;13;
61760;PMS5003;47664;51.660;-0.100;2023-02-28T05:30:35;17;16;
61760;PMS5003;47664;51.660;-0.100;2023-02-28T05:33:09;18;15;
61760;PMS5003;47664;51.660;-0.100;2023-02-28T05:35:37;17;13;
61760;PMS5003;47664;51.660;-0.100;2023-02-28T05:38:09;18;16;
61760;PMS5003;47664;51.660;-0.100;2023-02-28T05:40:42;16;16;
61760;PMS5003;47664;51.660;-0.100;2023-02-28T05:43:15;19;16;
61760;PMS5003;47664;51.660;-0.100;2023-02-28T05:45:47;19;14;
61760;PMS5003;47664;51.660;-0.100;2023-02-28T05:48:20;21;16;
61760;PMS5003;47664;51.660;-0.100;2023-02-28T05:50:52;19;16;
61760;PMS5003;47664;51.660;-0.100;2023-02-28T05:53:25;17;14;
61760;PMS5003;47664;51.660;-0.100;2023-02-28T05:55:57;14;13;
61760;PMS5003;47664;51.660;-0.100;2023-02-28T05:58:29;15;14;
61760;PMS5003;47664;51.660;-0.100;2023-02-28T06:01:18;17;15;
61760;PMS5003;47664;51.660;-0.100;2023-02-28T06:03:48;12;10;
61760;PMS5003;47664;51.660;-0.100;2023-02-28T06:06:20;11;11;
61760;PMS5003;47664;51.660;-0.100;2023-02-28T06:08:52;18;14;
61760;PMS5003;47664;51.660;-0.100;2023-02-28T06:11:24;14;11;
61760;PMS5003;47664;51.660;-0.100;2023-02-28T06:13:57;17;14;
61760;PMS5003;47664;51.660;-0.100;2023-02-28T06:16:31;18;13;
61760;PMS5003;47664;51.660;-0.100;2023-02-28T06:19:04;14;13;
61760;PMS5003;47664;51.660;-0.100;2023-02-28T06:21:36;11;10;
61760;PMS5003;47664;51.660;-0.100;2023-02-28T06:24:09;15;10;
61760;PMS5003;47664;51.660;-0.100;2023-02-28T06:26:41;15;12;
61760;PMS5003;47664;51.660;-0.100;2023-02-28T06:29:13;16;14;
61760;PMS5003;47664;51.660;-0.100;2023-02-28T06:31:46;11;9;
61760;PMS5003;47664;51.660;-0.100;2023-02-28T06:34:18;13;11;
61760;PMS5003;47664;51.660;-0.100;2023-02-28T06:36:51;15;13;
61760;PMS5003;47664;51.660;-0.100;2023-02-28T06:39:23;18;13;
61760;PMS5003;47664;51.660;-0.100;2023-02-28T06:41:55;11;10;
61760;PMS5003;47664;51.660;-0.100;2023-02-28T06:44:27;16;13;
61760;PMS5003;47664;51.660;-0.100;2023-02-28T06:47:00;13;10;
61760;PMS5003;47664;51.660;-0.100;2023-02-28T06:49:33;12;12;
61760;PMS5003;47664;51.660;-0.100;2023-02-28T06:52:05;11;11;
61760;PMS5003;47664;51.660;-0.100;2023-02-28T06:54:37;15;13;
61760;PMS5003;47664;51.660;-0.100;2023-02-28T06:57:09;17;11;
61760;PMS5003;47664;51.660;-0.100;2023-02-28T06:59:41;16;12;
61760;PMS5003;47664;51.660;-0.100;2023-02-28T07:02:15;18;15;
61760;PMS5003;47664;51.660;-0.100;2023-02-28T07:04:48;17;12;
61760;PMS5003;47664;51.660;-0.100;2023-02-28T07:07:20;15;12;
61760;PMS5003;47664;51.660;-0.100;2023-02-28T07:09:52;12;12;
61760;PMS5003;47664;51.660;-0.100;2023-02-28T07:12:24;19;14;
61760;PMS5003;47664;51.660;-0.100;2023-02-28T07:14:57;16;11;
61760;PMS5003;47664;51.660;-0.100;2023-02-28T07:17:29;12;12;
61760;PMS5003;47664;51.660;-0.100;2023-02-28T07:20:01;13;12;
61760;PMS5003;47664;51.660;-0.100;2023-02-28T07:22:34;16;12;
61760;PMS5003;47664;51.660;-0.100;2023-02-28T07:25:07;14;13;
61760;PMS5003;47664;51.660;-0.100;2023-02-28T07:27:40;13;10;
61760;PMS5003;47664;51.660;-0.100;2023-02-28T07:30:12;14;12;
61760;PMS5003;47664;51.660;-0.100;2023-02-28T07:32:45;13;10;
61760;PMS5003;47664;51.660;-0.100;2023-02-28T07:35:18;10;10;
61760;PMS5003;47664;51.660;-0.100;2023-02-28T07:37:50;16;12;
61760;PMS5003;47664;51.660;-0.100;2023-02-28T07:40:23;18;13;
61760;PMS5003;47664;51.660;-0.100;2023-02-28T07:42:55;10;10;
61760;PMS5003;47664;51.660;-0.100;2023-02-28T07:45:27;17;12;
61760;PMS5003;47664;51.660;-0.100;2023-02-28T07:47:59;15;11;
61760;PMS5003;47664;51.660;-0.100;2023-02-28T07:50:32;13;12;
61760;PMS5003;47664;51.660;-0.100;2023-02-28T07:53:04;11;10;
61760;PMS5003;47664;51.660;-0.100;2023-02-28T07:55:36;14;9;
61760;PMS5003;47664;51.660;-0.100;2023-02-28T07:58:08;12;11;
61760;PMS5003;47664;51.660;-0.100;2023-02-28T08:00:40;13;10;
61760;PMS5003;47664;51.660;-0.100;2023-02-28T08:03:12;16;11;
61760;PMS5003;47664;51.660;-0.100;2023-02-28T08:05:46;17;13;
61760;PMS5003;47664;51.660;-0.100;2023-02-28T08:08:18;15;10;
61760;PMS5003;47664;51.660;-0.100;2023-02-28T08:10:50;11;10;
61760;PMS5003;47664;51.660;-0.100;2023-02-28T08:13:24;9;7;
61760;PMS5003;47664;51.660;-0.100;2023-02-28T08:15:56;15;13;
61760;PMS5003;47664;51.660;-0.100;2023-02-28T08:18:28;18;12;
61760;PMS5003;47664;51.660;-0.100;2023-02-28T08:21:05;10;10;
61760;PMS5003;47664;51.660;-0.100;2023-02-28T08:23:33;18;15;
61760;PMS5003;47664;51.660;-0.100;2023-02-28T08:26:05;16;14;
61760;PMS5003;47664;51.660;-0.100;2023-02-28T08:28:38;14;11;
61760;PMS5003;47664;51.660;-0.100;2023-02-28T08:31:11;10;7;
61760;PMS5003;47664;51.660;-0.100;2023-02-28T08:33:43;9;7;
61760;PMS5003;47664;51.660;-0.100;2023-02-28T08:36:16;10;9;
61760;PMS5003;47664;51.660;-0.100;2023-02-28T08:38:48;12;12;
61760;PMS5003;47664;51.660;-0.100;2023-02-28T08:41:20;14;11;
61760;PMS5003;47664;51.660;-0.100;2023-02-28T08:43:52;13;12;
61760;PMS5003;47664;51.660;-0.100;2023-02-28T08:46:25;17;16;
61760;PMS5003;47664;51.660;-0.100;2023-02-28T08:48:57;37;37;
61760;PMS5003;47664;51.660;-0.100;2023-02-28T08:51:29;40;40;
61760;PMS5003;47664;51.660;-0.100;2023-02-28T08:54:01;53;51;
61760;PMS5003;47664;51.660;-0.100;2023-02-28T08:56:35;44;42;
61760;PMS5003;47664;51.660;-0.100;2023-02-28T08:59:08;41;36;
61760;PMS5003;47664;51.660;-0.100;2023-02-28T09:01:41;28;25;
61760;PMS5003;47664;51.660;-0.100;2023-02-28T09:04:13;22;20;
61760;PMS5003;47664;51.660;-0.100;2023-02-28T09:06:46;14;14;
61760;PMS5003;47664;51.660;-0.100;2023-02-28T09:09:18;11;10;
61760;PMS5003;47664;51.660;-0.100;2023-02-28T09:11:50;10;10;
61760;PMS5003;47664;51.660;-0.100;2023-02-28T09:14:23;11;10;
61760;PMS5003;47664;51.660;-0.100;2023-02-28T09:16:55;10;8;
61760;PMS5003;47664;51.660;-0.100;2023-02-28T09:19:27;11;10;
61760;PMS5003;47664;51.660;-0.100;2023-02-28T09:21:59;7;6;
61760;PMS5003;47664;51.660;-0.100;2023-02-28T09:24:31;9;6;
61760;PMS5003;47664;51.660;-0.100;2023-02-28T09:27:04;8;6;
61760;PMS5003;47664;51.660;-0.100;2023-02-28T09:29:37;24;16;
61760;PMS5003;47664;51.660;-0.100;2023-02-28T09:32:09;10;7;
61760;PMS5003;47664;51.660;-0.100;2023-02-28T09:34:41;5;5;
61760;PMS5003;47664;51.660;-0.100;2023-02-28T09:37:13;12;9;
61760;PMS5003;47664;51.660;-0.100;2023-02-28T09:39:45;6;4;
61760;PMS5003;47664;51.660;-0.100;2023-02-28T09:42:20;6;5;
61760;PMS5003;47664;51.660;-0.100;2023-02-28T09:44:49;6;6;
61760;PMS5003;47664;51.660;-0.100;2023-02-28T09:47:25;6;6;
61760;PMS5003;47664;51.660;-0.100;2023-02-28T09:49:56;6;5;
61760;PMS5003;47664;51.660;-0.100;2023-02-28T09:52:38;6;4;
61760;PMS5003;47664;51.660;-0.100;2023-02-28T09:55:18;5;5;
61760;PMS5003;47664;51.660;-0.100;2023-02-28T09:57:48;7;5;
61760;PMS5003;47664;51.660;-0.100;2023-02-28T10:00:22;3;3;
61760;PMS5003;47664;51.660;-0.100;2023-02-28T10:03:02;7;4;
61760;PMS5003;47664;51.660;-0.100;2023-02-28T10:05:41;5;5;
61760;PMS5003;47664;51.660;-0.100;2023-02-28T10:08:17;7;4;
61760;PMS5003;47664;51.660;-0.100;2023-02-28T10:10:50;3;3;
61760;PMS5003;47664;51.660;-0.100;2023-02-28T10:13:25;6;6;
61760;PMS5003;47664;51.660;-0.100;2023-02-28T10:16:02;4;4;
61760;PMS5003;47664;51.660;-0.100;2023-02-28T10:18:35;3;3;
61760;PMS5003;47664;51.660;-0.100;2023-02-28T10:21:11;5;4;
61760;PMS5003;47664;51.660;-0.100;2023-02-28T10:23:44;2;2;
61760;PMS5003;47664;51.660;-0.100;2023-02-28T10:26:20;13;13;
61760;PMS5003;47664;51.660;-0.100;2023-02-28T10:28:53;5;5;
61760;PMS5003;47664;51.660;-0.100;2023-02-28T10:31:25;6;4;
61760;PMS5003;47664;51.660;-0.100;2023-02-28T10:33:57;5;5;
61760;PMS5003;47664;51.660;-0.100;2023-02-28T10:36:29;6;4;
61760;PMS5003;47664;51.660;-0.100;2023-02-28T10:39:03;6;5;
61760;PMS5003;47664;51.660;-0.100;2023-02-28T10:42:02;4;4;
61760;PMS5003;47664;51.660;-0.100;2023-02-28T10:44:46;6;6;
61760;PMS5003;47664;51.660;-0.100;2023-02-28T10:47:40;2;2;
61760;PMS5003;47664;51.660;-0.100;2023-02-28T10:50:28;4;4;
61760;PMS5003;47664;51.660;-0.100;2023-02-28T10:53:13;5;4;
61760;PMS5003;47664;51.660;-0.100;2023-02-28T10:55:55;8;4;
61760;PMS5003;47664;51.660;-0.100;2023-02-28T10:58:24;3;3;
61760;PMS5003;47664;51.660;-0.100;2023-02-28T11:00:58;4;4;
61760;PMS5003;47664;51.660;-0.100;2023-02-28T11:03:32;4;4;
61760;PMS5003;47664;51.660;-0.100;2023-02-28T11:06:06;5;4;
61760;PMS5003;47664;51.660;-0.100;2023-02-28T11:08:45;9;9;
61760;PMS5003;47664;51.660;-0.100;2023-02-28T11:11:16;5;4;
61760;PMS5003;47664;51.660;-0.100;2023-02-28T11:13:52;4;4;
61760;PMS5003;47664;51.660;-0.100;2023-02-28T11:16:33;5;5;
61760;PMS5003;47664;51.660;-0.100;2023-02-28T11:19:06;4;3;
61760;PMS5003;47664;51.660;-0.100;2023-02-28T11:21:47;3;3;
61760;PMS5003;47664;51.660;-0.100;2023-02-28T11:24:21;6;6;
61760;PMS5003;47664;51.660;-0.100;2023-02-28T11:26:51;5;5;
61760;PMS5003;47664;51.660;-0.100;2023-02-28T11:29:24;8;6;
61760;PMS5003;47664;51.660;-0.100;2023-02-28T11:32:11;6;4;
61760;PMS5003;47664;51.660;-0.100;2023-02-28T11:34:42;5;5;
61760;PMS5003;47664;51.660;-0.100;2023-02-28T11:37:27;4;4;
61760;PMS5003;47664;51.660;-0.100;2023-02-28T11:39:59;5;5;
61760;PMS5003;47664;51.660;-0.100;2023-02-28T11:42:43;6;6;
61760;PMS5003;47664;51.660;-0.100;2023-02-28T11:45:23;7;7;
61760;PMS5003;47664;51.660;-0.100;2023-02-28T11:48:04;8;4;
61760;PMS5003;47664;51.660;-0.100;2023-02-28T11:50:40;7;5;
61760;PMS5003;47664;51.660;-0.100;2023-02-28T11:53:19;6;6;
61760;PMS5003;47664;51.660;-0.100;2023-02-28T11:55:59;6;6;
61760;PMS5003;47664;51.660;-0.100;2023-02-28T11:58:37;7;5;
61760;PMS5003;47664;51.660;-0.100;2023-02-28T12:01:17;7;6;
61760;PMS5003;47664;51.660;-0.100;2023-02-28T12:03:58;4;4;
61760;PMS5003;47664;51.660;-0.100;2023-02-28T12:06:38;8;7;
61760;PMS5003;47664;51.660;-0.100;2023-02-28T12:09:16;8;7;
61760;PMS5003;47664;51.660;-0.100;2023-02-28T12:11:55;9;9;
61760;PMS5003;47664;51.660;-0.100;2023-02-28T12:14:53;6;5;
61760;PMS5003;47664;51.660;-0.100;2023-02-28T12:17:32;5;5;
61760;PMS5003;47664;51.660;-0.100;2023-02-28T12:20:12;5;5;
61760;PMS5003;47664;51.660;-0.100;2023-02-28T12:22:51;4;4;
61760;PMS5003;47664;51.660;-0.100;2023-02-28T12:25:36;6;4;
61760;PMS5003;47664;51.660;-0.100;2023-02-28T12:28:15;5;5;
61760;PMS5003;47664;51.660;-0.100;2023-02-28T12:30:53;4;4;
61760;PMS5003;47664;51.660;-0.100;2023-02-28T12:33:24;4;3;
61760;PMS5003;47664;51.660;-0.100;2023-02-28T12:35:59;5;5;
61760;PMS5003;47664;51.660;-0.100;2023-02-28T12:38:38;3;3;
61760;PMS5003;47664;51.660;-0.100;2023-02-28T12:41:15;5;5;
61760;PMS5003;47664;51.660;-0.100;2023-02-28T12:43:46;5;5;
61760;PMS5003;47664;51.660;-0.100;2023-02-28T12:46:25;4;4;
61760;PMS5003;47664;51.660;-0.100;2023-02-28T12:48:57;8;5;
61760;PMS5003;47664;51.660;-0.100;2023-02-28T12:51:33;6;4;
61760;PMS5003;47664;51.660;-0.100;2023-02-28T12:54:11;9;6;
61760;PMS5003;47664;51.660;-0.100;2023-02-28T12:56:47;5;5;
61760;PMS5003;47664;51.660;-0.100;2023-02-28T12:59:25;10;8;
61760;PMS5003;47664;51.660;-0.100;2023-02-28T13:02:06;7;4;
61760;PMS5003;47664;51.660;-0.100;2023-02-28T13:04:56;4;2;
61760;PMS5003;47664;51.660;-0.100;2023-02-28T13:07:40;5;5;
61760;PMS5003;47664;51.660;-0.100;2023-02-28T13:10:37;2;2;
61760;PMS5003;47664;51.660;-0.100;2023-02-28T13:13:06;3;3;
61760;PMS5003;47664;51.660;-0.100;2023-02-28T13:15:41;3;3;
61760;PMS5003;47664;51.660;-0.100;2023-02-28T13:18:27;6;3;
61760;PMS5003;47664;51.660;-0.100;2023-02-28T13:20:57;2;2;
61760;PMS5003;47664;51.660;-0.100;2023-02-28T13:23:39;6;6;
61760;PMS5003;47664;51.660;-0.100;2023-02-28T13:26:22;3;1;
61760;PMS5003;47664;51.660;-0.100;2023-02-28T13:30:02;3;3;
61760;PMS5003;47664;51.660;-0.100;2023-02-28T13:33:32;3;2;
61760;PMS5003;47664;51.660;-0.100;2023-02-28T13:36:30;2;2;
61760;PMS5003;47664;51.660;-0.100;2023-02-28T13:39:03;4;1;
61760;PMS5003;47664;51.660;-0.100;2023-02-28T13:42:46;3;1;
61760;PMS5003;47664;51.660;-0.100;2023-02-28T13:45:23;3;1;
61760;PMS5003;47664;51.660;-0.100;2023-02-28T13:47:53;3;1;
61760;PMS5003;47664;51.660;-0.100;2023-02-28T13:50:27;2;2;
61760;PMS5003;47664;51.660;-0.100;2023-02-28T13:53:02;5;3;
61760;PMS5003;47664;51.660;-0.100;2023-02-28T13:55:50;2;2;
61760;PMS5003;47664;51.660;-0.100;2023-02-28T13:58:28;1;1;
61760;PMS5003;47664;51.660;-0.100;2023-02-28T14:01:12;1;1;
61760;PMS5003;47664;51.660;-0.100;2023-02-28T14:03:56;0;0;
61760;PMS5003;47664;51.660;-0.100;2023-02-28T14:06:36;2;1;
61760;PMS5003;47664;51.660;-0.100;2023-02-28T14:09:16;3;1;
61760;PMS5003;47664;51.660;-0.100;2023-02-28T14:11:50;2;2;
61760;PMS5003;47664;51.660;-0.100;2023-02-28T14:14:55;2;2;
61760;PMS5003;47664;51.660;-0.100;2023-02-28T14:17:23;2;2;
61760;PMS5003;47664;51.660;-0.100;2023-02-28T14:19:56;1;1;
61760;PMS5003;47664;51.660;-0.100;2023-02-28T14:22:49;2;2;
61760;PMS5003;47664;51.660;-0.100;2023-02-28T14:25:28;2;2;
61760;PMS5003;47664;51.660;-0.100;2023-02-28T14:28:04;3;3;
61760;PMS5003;47664;51.660;-0.100;2023-02-28T14:30:50;4;2;
61760;PMS5003;47664;51.660;-0.100;2023-02-28T14:33:26;1;1;
61760;PMS5003;47664;51.660;-0.100;2023-02-28T14:36:11;2;2;
61760;PMS5003;47664;51.660;-0.100;2023-02-28T14:38:47;2;2;
61760;PMS5003;47664;51.660;-0.100;2023-02-28T14:41:20;2;2;
61760;PMS5003;47664;51.660;-0.100;2023-02-28T14:43:56;2;2;
61760;PMS5003;47664;51.660;-0.100;2023-02-28T14:46:40;5;3;
61760;PMS5003;47664;51.660;-0.100;2023-02-28T14:49:17;3;1;
61760;PMS5003;47664;51.660;-0.100;2023-02-28T14:51:47;3;3;
61760;PMS5003;47664;51.660;-0.100;2023-02-28T14:54:29;1;1;
61760;PMS5003;47664;51.660;-0.100;2023-02-28T14:57:19;1;1;
61760;PMS5003;47664;51.660;-0.100;2023-02-28T14:59:56;1;1;
61760;PMS5003;47664;51.660;-0.100;2023-02-28T15:02:25;3;2;
61760;PMS5003;47664;51.660;-0.100;2023-02-28T15:05:02;2;1;
61760;PMS5003;47664;51.660;-0.100;2023-02-28T15:07:47;6;3;
61760;PMS5003;47664;51.660;-0.100;2023-02-28T15:10:28;2;2;
61760;PMS5003;47664;51.660;-0.100;2023-02-28T15:13:01;2;2;
61760;PMS5003;47664;51.660;-0.100;2023-02-28T15:15:40;1;1;
61760;PMS5003;47664;51.660;-0.100;2023-02-28T15:18:14;1;1;
61760;PMS5003;47664;51.660;-0.100;2023-02-28T15:20:48;1;1;
61760;PMS5003;47664;51.660;-0.100;2023-02-28T15:23:21;1;1;
61760;PMS5003;47664;51.660;-0.100;2023-02-28T15:25:55;1;1;
61760;PMS5003;47664;51.660;-0.100;2023-02-28T15:28:28;2;2;
61760;PMS5003;47664;51.660;-0.100;2023-02-28T15:31:01;2;2;
61760;PMS5003;47664;51.660;-0.100;2023-02-28T15:33:51;0;0;
61760;PMS5003;47664;51.660;-0.100;2023-02-28T15:36:19;0;0;
61760;PMS5003;47664;51.660;-0.100;2023-02-28T15:38:52;0;0;
61760;PMS5003;47664;51.660;-0.100;2023-02-28T15:41:26;4;1;
61760;PMS5003;47664;51.660;-0.100;2023-02-28T15:44:24;0;0;
61760;PMS5003;47664;51.660;-0.100;2023-02-28T15:46:54;0;0;
61760;PMS5003;47664;51.660;-0.100;2023-02-28T15:49:32;1;1;
61760;PMS5003;47664;51.660;-0.100;2023-02-28T15:52:05;4;1;
61760;PMS5003;47664;51.660;-0.100;2023-02-28T15:54:39;1;1;
61760;PMS5003;47664;51.660;-0.100;2023-02-28T15:57:13;2;0;
61760;PMS5003;47664;51.660;-0.100;2023-02-28T15:59:50;0;0;
61760;PMS5003;47664;51.660;-0.100;2023-02-28T16:02:21;3;1;
61760;PMS5003;47664;51.660;-0.100;2023-02-28T16:05:00;2;2;
61760;PMS5003;47664;51.660;-0.100;2023-02-28T16:07:51;3;0;
61760;PMS5003;47664;51.660;-0.100;2023-02-28T16:10:24;4;1;
61760;PMS5003;47664;51.660;-0.100;2023-02-28T16:12:57;1;0;
61760;PMS5003;47664;51.660;-0.100;2023-02-28T16:15:29;1;1;
61760;PMS5003;47664;51.660;-0.100;2023-02-28T16:18:10;4;2;
61760;PMS5003;47664;51.660;-0.100;2023-02-28T16:20:42;1;1;
61760;PMS5003;47664;51.660;-0.100;2023-02-28T16:23:14;1;1;
61760;PMS5003;47664;51.660;-0.100;2023-02-28T16:25:47;1;1;
61760;PMS5003;47664;51.660;-0.100;2023-02-28T16:28:19;1;1;
61760;PMS5003;47664;51.660;-0.100;2023-02-28T16:30:56;0;0;
61760;PMS5003;47664;51.660;-0.100;2023-02-28T16:33:30;1;1;
61760;PMS5003;47664;51.660;-0.100;2023-02-28T16:36:02;2;0;
61760;PMS5003;47664;51.660;-0.100;2023-02-28T16:38:36;0;0;
61760;PMS5003;47664;51.660;-0.100;2023-02-28T16:41:10;0;0;
61760;PMS5003;47664;51.660;-0.100;2023-02-28T16:43:40;0;0;
61760;PMS5003;47664;51.660;-0.100;2023-02-28T16:46:14;0;0;
61760;PMS5003;47664;51.660;-0.100;2023-02-28T16:48:47;1;1;
61760;PMS5003;47664;51.660;-0.100;2023-02-28T16:51:20;1;1;
61760;PMS5003;47664;51.660;-0.100;2023-02-28T16:53:49;1;1;
61760;PMS5003;47664;51.660;-0.100;2023-02-28T16:56:22;1;1;
61760;PMS5003;47664;51.660;-0.100;2023-02-28T16:58:56;0;0;
61760;PMS5003;47664;51.660;-0.100;2023-02-28T17:01:27;0;0;
61760;PMS5003;47664;51.660;-0.100;2023-02-28T17:03:59;2;0;
61760;PMS5003;47664;51.660;-0.100;2023-02-28T17:06:31;0;0;
61760;PMS5003;47664;51.660;-0.100;2023-02-28T17:09:03;0;0;
61760;PMS5003;47664;51.660;-0.100;2023-02-28T17:11:40;0;0;
61760;PMS5003;47664;51.660;-0.100;2023-02-28T17:14:14;2;0;
61760;PMS5003;47664;51.660;-0.100;2023-02-28T17:16:46;1;1;
61760;PMS5003;47664;51.660;-0.100;2023-02-28T17:19:18;1;1;
61760;PMS5003;47664;51.660;-0.100;2023-02-28T17:21:50;2;2;